Airport View

Enter AWOS ICAO identifier for current METAR.

ex. KFNL

KHPN 250956Z 04009KT 10SM CLR 04/M01 A3016 RMK AO2 SLP217 T00441006 $

25 Oct 2020 10:30

Phone: 914-288-0216

Other Area AWOS: KLGA - KTEB - KNYC - KDXR

TAF AMD KHPN 250832Z 2509/2606 02010KT P6SM BKN250 FM251400 03008KT P6SM FEW050 SCT090 BKN250 FM251900 07007KT P6SM SCT035 BKN080 FM260000 07007KT P6SM VCSH BKN040 FM260200 07007KT 5SM -RA BR BKN020 AMD NOT SKED